createdAt,value
2022-08-25T00:00:29.444Z,19.39
2022-08-25T00:03:36.017Z,19.41
2022-08-25T00:06:43.658Z,19.40
2022-08-25T00:09:46.916Z,19.45
2022-08-25T00:12:49.137Z,19.47
2022-08-25T00:15:51.592Z,19.46
2022-08-25T00:18:56.772Z,19.54
2022-08-25T00:21:59.514Z,19.43
2022-08-25T00:25:01.658Z,19.35
2022-08-25T00:28:08.230Z,19.34
2022-08-25T00:31:20.428Z,19.33
2022-08-25T00:34:26.555Z,19.28
2022-08-25T00:37:28.708Z,19.26
2022-08-25T00:40:31.569Z,19.27
2022-08-25T00:43:50.648Z,19.23
2022-08-25T00:46:56.269Z,19.16
2022-08-25T00:50:01.363Z,19.28
2022-08-25T00:53:05.802Z,19.36
2022-08-25T00:56:07.954Z,19.38
2022-08-25T00:59:10.917Z,19.42
2022-08-25T01:02:15.400Z,19.40
2022-08-25T01:05:19.352Z,19.27
2022-08-25T01:08:27.602Z,19.18
2022-08-25T01:11:31.648Z,19.17
2022-08-25T01:14:35.317Z,19.14
2022-08-25T01:17:53.283Z,19.11
2022-08-25T01:20:57.114Z,19.04
2022-08-25T01:24:00.366Z,19.02
2022-08-25T01:27:03.129Z,19.00
2022-08-25T01:30:06.185Z,18.94
2022-08-25T01:33:11.228Z,18.91
2022-08-25T01:36:18.418Z,18.94
2022-08-25T01:39:20.905Z,18.87
2022-08-25T01:42:48.583Z,18.88
2022-08-25T01:45:50.822Z,18.87
2022-08-25T01:48:53.309Z,18.87
2022-08-25T01:52:11.773Z,18.82
2022-08-25T01:55:14.219Z,18.91
2022-08-25T01:58:16.410Z,18.89
2022-08-25T02:01:22.390Z,18.88
2022-08-25T02:04:24.787Z,18.84
2022-08-25T02:07:27.469Z,18.82
2022-08-25T02:10:29.909Z,18.83
2022-08-25T02:13:32.602Z,18.80
2022-08-25T02:16:36.976Z,18.77
2022-08-25T02:19:39.209Z,18.74
2022-08-25T02:22:41.615Z,18.77
2022-08-25T02:25:51.155Z,18.76
2022-08-25T02:28:54.212Z,18.73
2022-08-25T02:31:56.366Z,18.72
2022-08-25T02:34:58.801Z,18.67
2022-08-25T02:38:01.683Z,18.70
2022-08-25T02:41:12.581Z,18.73
2022-08-25T02:44:14.847Z,18.68
2022-08-25T02:47:17.260Z,18.61
2022-08-25T02:50:19.502Z,18.56
2022-08-25T02:53:22.287Z,18.57
2022-08-25T02:56:25.732Z,18.65
2022-08-25T02:59:28.343Z,18.64
2022-08-25T03:02:30.508Z,18.63
2022-08-25T03:05:33.183Z,18.61
2022-08-25T03:08:37.185Z,18.68
2022-08-25T03:11:39.761Z,18.72
2022-08-25T03:14:41.854Z,18.79
2022-08-25T03:17:49.254Z,18.80
2022-08-25T03:20:52.881Z,18.77
2022-08-25T03:23:56.363Z,18.73
2022-08-25T03:26:58.501Z,18.66
2022-08-25T03:30:02.814Z,18.65
2022-08-25T03:33:04.985Z,18.60
2022-08-25T03:36:08.798Z,18.56
2022-08-25T03:39:10.977Z,18.57
2022-08-25T03:42:13.295Z,18.54
2022-08-25T03:45:18.071Z,18.53
2022-08-25T03:48:20.502Z,18.68
2022-08-25T03:51:27.581Z,19.15
2022-08-25T03:54:30.034Z,19.31
2022-08-25T03:57:32.241Z,19.30
2022-08-25T04:00:35.013Z,19.26
2022-08-25T04:03:37.478Z,19.20
2022-08-25T04:06:40.863Z,19.14
2022-08-25T04:09:43.332Z,19.23
2022-08-25T04:12:45.565Z,19.17
2022-08-25T04:15:48.398Z,19.18
2022-08-25T04:18:52.138Z,19.21
2022-08-25T04:21:56.778Z,19.20
2022-08-25T04:24:59.900Z,19.24
2022-08-25T04:28:02.476Z,19.28
2022-08-25T04:31:09.477Z,19.30
2022-08-25T04:34:19.508Z,19.37
2022-08-25T04:37:34.367Z,19.37
2022-08-25T04:40:37.224Z,19.44
2022-08-25T04:43:41.273Z,19.43
2022-08-25T04:46:43.998Z,19.55
2022-08-25T04:49:46.161Z,19.63
2022-08-25T04:52:49.385Z,19.68
2022-08-25T04:55:51.513Z,19.77
2022-08-25T04:58:54.903Z,19.85
2022-08-25T05:01:58.646Z,20.04
2022-08-25T05:05:01.398Z,20.06
2022-08-25T05:08:06.125Z,20.28
2022-08-25T05:11:12.952Z,20.43
2022-08-25T05:14:18.198Z,20.58
2022-08-25T05:17:21.027Z,20.72
2022-08-25T05:20:25.042Z,20.74
2022-08-25T05:23:27.677Z,20.84
2022-08-25T05:26:31.530Z,20.95
2022-08-25T05:29:34.373Z,21.19
2022-08-25T05:32:36.943Z,21.50
2022-08-25T05:35:39.986Z,21.84
2022-08-25T05:38:42.556Z,21.88
2022-08-25T05:41:45.008Z,22.62
2022-08-25T05:44:47.372Z,23.72
2022-08-25T05:47:51.389Z,26.21
2022-08-25T05:50:55.786Z,28.99
2022-08-25T05:53:59.268Z,32.73
2022-08-25T05:57:01.517Z,34.74
2022-08-25T06:00:09.354Z,36.88
2022-08-25T06:03:14.075Z,38.31
2022-08-25T06:06:16.707Z,39.39
2022-08-25T06:09:18.955Z,40.61
2022-08-25T06:12:21.794Z,40.43
2022-08-25T06:15:27.566Z,40.81
2022-08-25T06:18:30.022Z,41.94
2022-08-25T06:21:32.344Z,42.81
2022-08-25T06:24:34.987Z,43.49
2022-08-25T06:27:37.555Z,43.20
2022-08-25T06:30:40.098Z,43.84
2022-08-25T06:33:42.476Z,43.53
2022-08-25T06:36:45.187Z,43.48
2022-08-25T06:39:51.902Z,43.75
2022-08-25T06:42:57.265Z,43.72
2022-08-25T06:46:11.938Z,42.99
2022-08-25T06:49:14.443Z,43.56
2022-08-25T06:52:16.694Z,44.59
2022-08-25T06:55:19.179Z,44.12
2022-08-25T06:58:21.285Z,44.05
2022-08-25T07:01:30.288Z,44.98
2022-08-25T07:04:35.593Z,44.21
2022-08-25T07:07:43.598Z,42.34
2022-08-25T07:10:48.162Z,41.13
2022-08-25T07:13:51.347Z,41.33
2022-08-25T07:16:53.803Z,40.43
2022-08-25T07:19:57.489Z,37.46
2022-08-25T07:23:00.054Z,36.27
2022-08-25T07:26:39.432Z,34.44
2022-08-25T07:29:42.852Z,31.72
2022-08-25T07:32:45.861Z,30.62
2022-08-25T07:35:47.982Z,29.69
2022-08-25T07:38:52.819Z,29.45
2022-08-25T07:41:55.039Z,29.40
2022-08-25T07:44:57.474Z,29.62
2022-08-25T07:48:11.733Z,29.11
2022-08-25T07:51:15.840Z,28.92
2022-08-25T07:54:18.309Z,28.74
2022-08-25T07:57:22.322Z,28.21
2022-08-25T08:00:29.814Z,28.41
2022-08-25T08:03:50.554Z,28.25
2022-08-25T08:06:53.626Z,28.04
2022-08-25T08:10:11.938Z,27.80
2022-08-25T08:13:18.988Z,27.08
2022-08-25T08:16:26.844Z,27.55
2022-08-25T08:19:29.026Z,27.49
2022-08-25T08:22:31.596Z,27.72
2022-08-25T08:25:33.752Z,27.65
2022-08-25T08:28:36.572Z,27.41
2022-08-25T08:31:38.820Z,27.26
2022-08-25T08:34:41.723Z,27.55
2022-08-25T08:37:43.867Z,27.82
2022-08-25T08:41:22.918Z,27.79
2022-08-25T08:44:25.355Z,27.71
2022-08-25T08:47:55.911Z,27.72
2022-08-25T08:51:23.134Z,27.69
2022-08-25T08:54:31.161Z,27.85
2022-08-25T08:57:43.247Z,27.87
2022-08-25T09:00:52.591Z,28.00
2022-08-25T09:04:05.235Z,28.13
2022-08-25T09:07:14.870Z,28.07
2022-08-25T09:10:19.193Z,28.12
2022-08-25T09:13:36.783Z,28.11
2022-08-25T10:57:22.225Z,34.38
2022-08-25T11:00:33.226Z,36.04
2022-08-25T11:03:45.897Z,36.62
2022-08-25T11:06:54.908Z,36.61
2022-08-25T11:10:09.864Z,38.13
2022-08-25T11:13:24.451Z,38.66
2022-08-25T11:16:37.765Z,40.08
2022-08-25T11:19:45.695Z,39.10
2022-08-25T11:22:55.152Z,39.38
2022-08-25T11:26:03.123Z,40.18
2022-08-25T11:29:12.406Z,40.49
2022-08-25T11:32:19.611Z,40.66
2022-08-25T11:35:47.209Z,38.85
2022-08-25T11:39:01.241Z,39.79
2022-08-25T11:42:15.418Z,39.35
2022-08-25T11:45:36.258Z,39.96
2022-08-25T11:48:51.625Z,39.18
2022-08-25T11:51:54.374Z,38.92
2022-08-25T11:54:56.557Z,40.08
2022-08-25T11:58:39.179Z,40.25
2022-08-25T12:01:43.168Z,40.58
2022-08-25T12:04:46.755Z,40.40
2022-08-25T12:08:21.879Z,40.64
2022-08-25T12:11:42.810Z,40.61
2022-08-25T12:14:46.293Z,39.53
2022-08-25T12:18:11.404Z,38.69
2022-08-25T12:21:15.392Z,38.98
2022-08-25T12:24:47.301Z,39.78
2022-08-25T12:28:37.079Z,39.60
2022-08-25T12:32:17.227Z,39.55
2022-08-25T12:35:29.568Z,40.55
2022-08-25T12:38:49.592Z,39.94
2022-08-25T12:42:03.260Z,39.81
2022-08-25T12:45:17.210Z,37.85
2022-08-25T12:49:01.586Z,37.74
2022-08-25T12:52:15.863Z,38.76
2022-08-25T12:55:20.913Z,39.69
2022-08-25T12:58:56.532Z,36.89
2022-08-25T13:02:03.088Z,38.20
2022-08-25T13:05:33.614Z,38.13
2022-08-25T13:09:01.269Z,37.99
2022-08-25T13:12:09.253Z,37.65
2022-08-25T13:15:16.317Z,38.53
2022-08-25T13:18:26.613Z,37.43
2022-08-25T13:21:38.846Z,37.39
2022-08-25T13:24:43.696Z,37.73
2022-08-25T13:27:56.849Z,37.54
2022-08-25T13:31:27.945Z,36.10
2022-08-25T13:34:35.565Z,35.67
2022-08-25T13:37:40.384Z,35.34
2022-08-25T13:40:43.284Z,35.01
2022-08-25T13:43:46.905Z,34.29
2022-08-25T13:47:07.713Z,34.18
2022-08-25T13:50:31.517Z,34.55
2022-08-25T13:53:33.809Z,34.48
2022-08-25T13:56:42.022Z,33.81
2022-08-25T13:59:48.723Z,33.84
2022-08-25T14:02:53.883Z,33.57
2022-08-25T14:06:14.759Z,33.35
2022-08-25T14:09:28.251Z,33.35
2022-08-25T14:12:33.664Z,33.12
2022-08-25T14:15:36.531Z,33.14
2022-08-25T14:18:46.353Z,33.12
2022-08-25T14:21:49.726Z,32.79
2022-08-25T14:24:59.013Z,32.66
2022-08-25T14:28:07.296Z,32.34
2022-08-25T14:31:27.686Z,32.54
2022-08-25T14:34:36.796Z,32.73
2022-08-25T14:37:39.235Z,32.98
2022-08-25T14:40:42.654Z,32.53
2022-08-25T14:43:45.296Z,32.43
2022-08-25T14:46:54.113Z,32.31
2022-08-25T14:49:56.595Z,32.01
2022-08-25T14:52:58.918Z,32.08
2022-08-25T14:56:06.043Z,32.07
2022-08-25T14:59:11.778Z,31.90
2022-08-25T15:02:20.057Z,31.98
2022-08-25T15:05:27.035Z,32.04
2022-08-25T15:08:49.862Z,31.67
2022-08-25T15:11:56.711Z,31.56
2022-08-25T15:14:59.180Z,31.39
2022-08-25T15:18:01.495Z,31.34
2022-08-25T15:21:04.091Z,31.39
2022-08-25T15:24:08.841Z,31.25
2022-08-25T15:27:15.085Z,31.42
2022-08-25T15:30:17.202Z,31.47
2022-08-25T15:33:22.648Z,31.45
2022-08-25T15:36:26.083Z,31.41
2022-08-25T15:39:28.703Z,31.30
2022-08-25T15:42:30.958Z,31.32
2022-08-25T15:45:35.806Z,31.30
2022-08-25T15:48:38.153Z,31.15
2022-08-25T15:51:41.154Z,31.05
2022-08-25T15:54:43.276Z,30.91
2022-08-25T15:57:49.756Z,30.87
2022-08-25T16:00:56.617Z,30.82
2022-08-25T16:03:59.293Z,30.76
2022-08-25T16:07:01.451Z,30.69
2022-08-25T16:10:04.850Z,30.65
2022-08-25T16:13:09.501Z,30.53
2022-08-25T16:16:12.026Z,30.53
2022-08-25T16:19:15.010Z,30.46
2022-08-25T16:22:18.089Z,30.35
2022-08-25T16:25:20.935Z,30.20
2022-08-25T16:28:24.415Z,30.08
2022-08-25T16:31:27.394Z,29.91
2022-08-25T16:34:30.871Z,29.75
2022-08-25T16:37:35.632Z,29.80
2022-08-25T16:40:42.200Z,29.60
2022-08-25T16:43:46.218Z,29.52
2022-08-25T16:46:48.660Z,29.40
2022-08-25T16:49:50.845Z,29.31
2022-08-25T16:53:12.860Z,29.17
2022-08-25T16:56:15.057Z,29.03
2022-08-25T16:59:17.696Z,28.98
2022-08-25T17:02:21.658Z,28.84
2022-08-25T17:05:24.223Z,28.71
2022-08-25T17:08:30.790Z,28.64
2022-08-25T17:11:36.108Z,28.57
2022-08-25T17:14:38.271Z,28.42
2022-08-25T17:17:40.685Z,28.43
2022-08-25T17:20:45.189Z,28.31
2022-08-25T17:23:48.254Z,28.26
2022-08-25T17:26:53.506Z,28.09
2022-08-25T17:29:56.039Z,27.99
2022-08-25T17:33:00.062Z,27.90
2022-08-25T17:36:03.186Z,27.68
2022-08-25T17:39:07.170Z,27.67
2022-08-25T17:42:10.030Z,27.65
2022-08-25T17:45:12.156Z,27.47
2022-08-25T17:48:15.840Z,27.42
2022-08-25T17:51:18.575Z,27.29
2022-08-25T17:54:21.526Z,27.18
2022-08-25T17:57:23.538Z,27.19
2022-08-25T18:00:25.965Z,27.13
2022-08-25T18:03:29.275Z,26.91
2022-08-25T18:06:31.740Z,27.00
2022-08-25T18:09:34.459Z,26.95
2022-08-25T18:12:37.804Z,26.91
2022-08-25T18:15:42.425Z,26.91
2022-08-25T18:18:45.047Z,26.90
2022-08-25T18:21:48.003Z,26.83
2022-08-25T18:24:50.172Z,26.69
2022-08-25T18:27:57.157Z,26.61
2022-08-25T18:30:59.357Z,26.61
2022-08-25T18:34:02.205Z,26.53
2022-08-25T18:37:23.092Z,26.54
2022-08-25T18:40:26.311Z,26.45
2022-08-25T18:43:31.336Z,26.50
2022-08-25T18:46:36.483Z,26.42
2022-08-25T18:49:39.478Z,26.37
2022-08-25T18:52:41.908Z,26.32
2022-08-25T18:55:45.022Z,26.30
2022-08-25T18:58:48.332Z,26.22
2022-08-25T19:01:50.798Z,26.16
2022-08-25T19:04:53.395Z,26.12
2022-08-25T19:07:55.525Z,26.18
2022-08-25T19:10:57.966Z,26.17
2022-08-25T19:14:00.597Z,26.17
2022-08-25T19:17:03.172Z,26.15
2022-08-25T19:20:11.278Z,26.11
2022-08-25T19:23:14.002Z,26.09
2022-08-25T19:26:17.352Z,26.08
2022-08-25T19:29:20.654Z,26.00
2022-08-25T19:32:22.936Z,25.99
2022-08-25T19:35:34.475Z,25.92
2022-08-25T19:38:37.704Z,25.97
2022-08-25T19:41:41.931Z,25.87
2022-08-25T19:44:44.045Z,25.92
2022-08-25T19:47:47.823Z,25.85
2022-08-25T19:50:50.006Z,25.79
2022-08-25T19:54:01.594Z,25.77
2022-08-25T19:57:07.876Z,25.64
2022-08-25T20:00:17.794Z,25.58
2022-08-25T20:03:21.493Z,25.50
2022-08-25T20:06:24.186Z,25.38
2022-08-25T20:09:39.422Z,25.26
2022-08-25T20:12:46.715Z,25.17
2022-08-25T20:15:49.191Z,25.13
2022-08-25T20:18:52.694Z,24.93
2022-08-25T20:21:55.131Z,24.96
2022-08-25T20:24:59.207Z,24.99
2022-08-25T20:28:03.163Z,25.06
2022-08-25T20:31:05.401Z,24.98
2022-08-25T20:34:08.701Z,24.91
2022-08-25T20:37:11.416Z,24.91
2022-08-25T20:40:16.627Z,24.85
2022-08-25T20:43:19.086Z,24.90
2022-08-25T20:46:23.877Z,24.79
2022-08-25T20:49:28.032Z,24.88
2022-08-25T20:52:31.172Z,24.84
2022-08-25T20:55:33.306Z,24.80
2022-08-25T20:58:45.351Z,24.86
2022-08-25T21:01:49.055Z,24.80
2022-08-25T21:04:53.018Z,24.59
2022-08-25T21:07:55.353Z,24.65
2022-08-25T21:10:57.787Z,24.45
2022-08-25T21:14:02.112Z,24.52
2022-08-25T21:17:12.119Z,24.42
2022-08-25T21:20:14.953Z,24.27
2022-08-25T21:23:17.335Z,24.28
2022-08-25T21:26:26.155Z,24.29
2022-08-25T21:29:29.892Z,24.19
2022-08-25T21:32:32.758Z,24.29
2022-08-25T21:35:39.712Z,24.31
2022-08-25T21:38:42.748Z,24.25
2022-08-25T21:41:47.046Z,24.14
2022-08-25T21:44:50.535Z,24.01
2022-08-25T21:47:52.975Z,23.86
2022-08-25T21:51:12.373Z,23.76
2022-08-25T21:54:16.932Z,23.64
2022-08-25T21:57:23.599Z,23.53
2022-08-25T22:00:27.291Z,23.49
2022-08-25T22:03:29.715Z,23.57
2022-08-25T22:06:32.966Z,23.54
2022-08-25T22:09:36.114Z,23.51
2022-08-25T22:12:38.655Z,23.78
2022-08-25T22:15:41.616Z,23.67
2022-08-25T22:18:43.819Z,23.72
2022-08-25T22:21:46.262Z,23.60
2022-08-25T22:24:48.416Z,23.63
2022-08-25T22:27:56.888Z,23.53
2022-08-25T22:31:06.653Z,23.39
2022-08-25T22:34:10.869Z,23.35
2022-08-25T22:37:17.595Z,23.44
2022-08-25T22:40:20.040Z,23.31
2022-08-25T22:43:22.515Z,23.25
2022-08-25T22:46:27.932Z,23.13
2022-08-25T22:49:30.221Z,23.04
2022-08-25T22:52:34.652Z,23.00
2022-08-25T22:55:42.666Z,23.02
2022-08-25T22:58:51.489Z,22.97
2022-08-25T23:01:54.701Z,22.93
2022-08-25T23:04:57.829Z,22.89
2022-08-25T23:08:03.296Z,22.84
2022-08-25T23:11:10.014Z,22.80
2022-08-25T23:14:12.584Z,22.87
2022-08-25T23:17:15.068Z,22.89
2022-08-25T23:20:35.923Z,22.79
2022-08-25T23:23:38.361Z,22.69
2022-08-25T23:26:42.722Z,22.67
2022-08-25T23:29:49.465Z,22.73
2022-08-25T23:32:51.597Z,22.67
2022-08-25T23:36:01.331Z,22.61
2022-08-25T23:39:05.477Z,22.53
2022-08-25T23:42:10.167Z,22.41
2022-08-25T23:45:13.251Z,22.32
2022-08-25T23:48:18.802Z,22.29
2022-08-25T23:51:27.028Z,22.29
2022-08-25T23:54:30.824Z,22.30
2022-08-25T23:57:33.633Z,22.28
